sensor_id;sensor_type;location;lat;lon;timestamp;pressure;altitude;pressure_sealevel;temperature;humidity
20003;BME280;10162;41.600;23.806;2023-05-03T00:01:47;95513.97;;;11.87;87.27
20003;BME280;10162;41.600;23.806;2023-05-03T00:04:15;95527.72;;;11.68;89.17
20003;BME280;10162;41.600;23.806;2023-05-03T00:06:45;95539.16;;;11.60;91.09
20003;BME280;10162;41.600;23.806;2023-05-03T00:12:46;95532.13;;;11.33;96.34
20003;BME280;10162;41.600;23.806;2023-05-03T00:15:15;95504.56;;;11.37;95.42
20003;BME280;10162;41.600;23.806;2023-05-03T00:17:41;95498.69;;;11.63;92.41
20003;BME280;10162;41.600;23.806;2023-05-03T00:20:07;95490.25;;;11.39;92.38
20003;BME280;10162;41.600;23.806;2023-05-03T00:22:35;95505.97;;;11.39;96.31
20003;BME280;10162;41.600;23.806;2023-05-03T00:25:01;95507.78;;;11.39;94.68
20003;BME280;10162;41.600;23.806;2023-05-03T00:27:31;95496.28;;;11.33;94.40
20003;BME280;10162;41.600;23.806;2023-05-03T00:29:57;95490.78;;;11.28;96.40
20003;BME280;10162;41.600;23.806;2023-05-03T00:32:29;95502.50;;;11.32;97.00
20003;BME280;10162;41.600;23.806;2023-05-03T00:34:56;95494.03;;;11.30;98.67
20003;BME280;10162;41.600;23.806;2023-05-03T00:37:23;95470.13;;;11.12;97.99
20003;BME280;10162;41.600;23.806;2023-05-03T00:39:52;95494.72;;;11.39;92.51
20003;BME280;10162;41.600;23.806;2023-05-03T00:42:25;95477.38;;;11.38;89.50
20003;BME280;10162;41.600;23.806;2023-05-03T00:45:02;95475.22;;;11.48;86.00
20003;BME280;10162;41.600;23.806;2023-05-03T00:47:31;95477.72;;;11.56;88.86
20003;BME280;10162;41.600;23.806;2023-05-03T00:49:59;95472.88;;;11.59;88.05
20003;BME280;10162;41.600;23.806;2023-05-03T00:55:39;95460.09;;;12.12;82.78
20003;BME280;10162;41.600;23.806;2023-05-03T00:58:06;95470.34;;;12.07;82.17
20003;BME280;10162;41.600;23.806;2023-05-03T01:00:37;95467.34;;;12.17;82.84
20003;BME280;10162;41.600;23.806;2023-05-03T01:03:03;95459.69;;;11.74;89.20
20003;BME280;10162;41.600;23.806;2023-05-03T01:05:33;95434.72;;;11.44;89.69
20003;BME280;10162;41.600;23.806;2023-05-03T01:08:10;95450.97;;;11.67;89.62
20003;BME280;10162;41.600;23.806;2023-05-03T01:14:31;95441.09;;;11.69;85.73
20003;BME280;10162;41.600;23.806;2023-05-03T01:17:12;95443.06;;;11.88;86.47
20003;BME280;10162;41.600;23.806;2023-05-03T01:19:44;95445.00;;;11.73;87.31
20003;BME280;10162;41.600;23.806;2023-05-03T01:22:37;95466.38;;;11.77;85.19
20003;BME280;10162;41.600;23.806;2023-05-03T01:25:11;95447.63;;;11.80;85.79
20003;BME280;10162;41.600;23.806;2023-05-03T01:27:38;95467.44;;;11.89;84.83
20003;BME280;10162;41.600;23.806;2023-05-03T01:30:07;95469.22;;;11.82;84.03
20003;BME280;10162;41.600;23.806;2023-05-03T01:36:03;95431.59;;;12.02;77.67
20003;BME280;10162;41.600;23.806;2023-05-03T01:38:35;95442.97;;;12.16;78.75
20003;BME280;10162;41.600;23.806;2023-05-03T01:41:05;95461.34;;;12.36;80.18
20003;BME280;10162;41.600;23.806;2023-05-03T01:43:34;95422.41;;;11.72;87.57
20003;BME280;10162;41.600;23.806;2023-05-03T01:46:01;95438.06;;;12.00;80.57
20003;BME280;10162;41.600;23.806;2023-05-03T01:48:27;95469.06;;;12.44;78.68
20003;BME280;10162;41.600;23.806;2023-05-03T01:54:16;95447.25;;;11.83;92.06
20003;BME280;10162;41.600;23.806;2023-05-03T01:56:42;95441.66;;;11.58;97.43
20003;BME280;10162;41.600;23.806;2023-05-03T01:59:10;95442.41;;;11.52;96.91
20003;BME280;10162;41.600;23.806;2023-05-03T02:02:09;95461.56;;;11.87;99.10
20003;BME280;10162;41.600;23.806;2023-05-03T02:05:04;95447.69;;;11.24;100.00
20003;BME280;10162;41.600;23.806;2023-05-03T02:12:07;95461.69;;;11.72;100.00
20003;BME280;10162;41.600;23.806;2023-05-03T02:14:36;95457.53;;;11.56;100.00
20003;BME280;10162;41.600;23.806;2023-05-03T02:17:01;95449.16;;;11.33;100.00
20003;BME280;10162;41.600;23.806;2023-05-03T02:19:28;95437.03;;;11.26;100.00
20003;BME280;10162;41.600;23.806;2023-05-03T02:22:24;95461.97;;;11.22;100.00
20003;BME280;10162;41.600;23.806;2023-05-03T02:24:57;95452.72;;;11.26;100.00
20003;BME280;10162;41.600;23.806;2023-05-03T02:27:24;95444.66;;;11.55;100.00
20003;BME280;10162;41.600;23.806;2023-05-03T02:29:50;95445.94;;;11.66;100.00
20003;BME280;10162;41.600;23.806;2023-05-03T02:32:20;95448.19;;;11.41;100.00
20003;BME280;10162;41.600;23.806;2023-05-03T02:34:48;95456.69;;;11.15;100.00
20003;BME280;10162;41.600;23.806;2023-05-03T02:37:18;95462.94;;;11.48;100.00
20003;BME280;10162;41.600;23.806;2023-05-03T02:39:45;95454.59;;;11.32;100.00
20003;BME280;10162;41.600;23.806;2023-05-03T02:42:40;95458.97;;;10.75;100.00
20003;BME280;10162;41.600;23.806;2023-05-03T02:45:07;95452.25;;;10.94;100.00
20003;BME280;10162;41.600;23.806;2023-05-03T02:47:33;95455.75;;;11.01;100.00
20003;BME280;10162;41.600;23.806;2023-05-03T02:49:58;95480.31;;;11.28;100.00
20003;BME280;10162;41.600;23.806;2023-05-03T02:55:30;95516.94;;;11.28;100.00
20003;BME280;10162;41.600;23.806;2023-05-03T02:57:57;95538.25;;;11.46;100.00
20003;BME280;10162;41.600;23.806;2023-05-03T03:00:22;95577.44;;;11.61;100.00
20003;BME280;10162;41.600;23.806;2023-05-03T03:02:54;95590.66;;;11.53;100.00
20003;BME280;10162;41.600;23.806;2023-05-03T03:05:22;95620.09;;;11.55;100.00
20003;BME280;10162;41.600;23.806;2023-05-03T03:07:50;95631.50;;;11.47;100.00
20003;BME280;10162;41.600;23.806;2023-05-03T03:10:16;95639.22;;;11.34;100.00
20003;BME280;10162;41.600;23.806;2023-05-03T03:15:37;95634.78;;;11.13;100.00
20003;BME280;10162;41.600;23.806;2023-05-03T03:18:02;95668.00;;;11.13;100.00
20003;BME280;10162;41.600;23.806;2023-05-03T03:20:28;95667.53;;;11.24;100.00
20003;BME280;10162;41.600;23.806;2023-05-03T03:22:55;95657.97;;;10.81;100.00
20003;BME280;10162;41.600;23.806;2023-05-03T03:25:30;95655.19;;;10.67;100.00
20003;BME280;10162;41.600;23.806;2023-05-03T03:28:06;95669.28;;;10.52;100.00
20003;BME280;10162;41.600;23.806;2023-05-03T03:30:38;95668.19;;;10.46;100.00
20003;BME280;10162;41.600;23.806;2023-05-03T03:33:26;95662.59;;;10.49;100.00
20003;BME280;10162;41.600;23.806;2023-05-03T03:36:06;95658.72;;;10.30;100.00
20003;BME280;10162;41.600;23.806;2023-05-03T03:38:39;95630.66;;;9.95;100.00
20003;BME280;10162;41.600;23.806;2023-05-03T03:41:16;95628.66;;;9.97;100.00
20003;BME280;10162;41.600;23.806;2023-05-03T03:43:42;95635.41;;;9.91;100.00
20003;BME280;10162;41.600;23.806;2023-05-03T03:46:20;95656.13;;;10.30;100.00
20003;BME280;10162;41.600;23.806;2023-05-03T03:48:50;95632.13;;;10.27;100.00
20003;BME280;10162;41.600;23.806;2023-05-03T03:51:23;95661.16;;;10.32;100.00
20003;BME280;10162;41.600;23.806;2023-05-03T03:53:49;95647.19;;;10.40;100.00
20003;BME280;10162;41.600;23.806;2023-05-03T03:56:15;95656.56;;;10.34;100.00
20003;BME280;10162;41.600;23.806;2023-05-03T03:58:41;95648.72;;;10.34;100.00
20003;BME280;10162;41.600;23.806;2023-05-03T04:01:42;95685.22;;;10.42;100.00
20003;BME280;10162;41.600;23.806;2023-05-03T04:04:09;95677.13;;;10.14;100.00
20003;BME280;10162;41.600;23.806;2023-05-03T04:06:54;95685.78;;;10.15;100.00
20003;BME280;10162;41.600;23.806;2023-05-03T04:10:37;95697.84;;;10.24;100.00
20003;BME280;10162;41.600;23.806;2023-05-03T04:13:46;95690.28;;;10.06;100.00
20003;BME280;10162;41.600;23.806;2023-05-03T04:16:12;95651.09;;;9.69;100.00
20003;BME280;10162;41.600;23.806;2023-05-03T04:22:16;95680.81;;;9.90;100.00
20003;BME280;10162;41.600;23.806;2023-05-03T04:25:11;95662.72;;;10.04;100.00
20003;BME280;10162;41.600;23.806;2023-05-03T04:27:39;95635.38;;;9.77;100.00
20003;BME280;10162;41.600;23.806;2023-05-03T04:30:07;95661.16;;;10.17;100.00
20003;BME280;10162;41.600;23.806;2023-05-03T04:32:43;95658.09;;;10.43;100.00
20003;BME280;10162;41.600;23.806;2023-05-03T04:35:10;95673.03;;;10.49;100.00
20003;BME280;10162;41.600;23.806;2023-05-03T04:37:40;95681.59;;;10.28;100.00
20003;BME280;10162;41.600;23.806;2023-05-03T04:40:07;95698.91;;;10.29;100.00
20003;BME280;10162;41.600;23.806;2023-05-03T04:42:50;95688.72;;;10.49;100.00
20003;BME280;10162;41.600;23.806;2023-05-03T04:45:17;95692.88;;;10.44;100.00
20003;BME280;10162;41.600;23.806;2023-05-03T04:47:46;95664.03;;;10.22;100.00
20003;BME280;10162;41.600;23.806;2023-05-03T04:50:12;95648.66;;;10.42;100.00
20003;BME280;10162;41.600;23.806;2023-05-03T04:56:05;95678.88;;;10.95;100.00
20003;BME280;10162;41.600;23.806;2023-05-03T04:58:36;95663.25;;;11.02;100.00
20003;BME280;10162;41.600;23.806;2023-05-03T05:01:31;95665.72;;;11.25;100.00
20003;BME280;10162;41.600;23.806;2023-05-03T05:04:01;95665.72;;;11.46;100.00
20003;BME280;10162;41.600;23.806;2023-05-03T05:06:33;95660.56;;;11.31;100.00
20003;BME280;10162;41.600;23.806;2023-05-03T05:09:00;95666.34;;;11.48;100.00
20003;BME280;10162;41.600;23.806;2023-05-03T05:11:52;95683.78;;;11.62;100.00
20003;BME280;10162;41.600;23.806;2023-05-03T05:14:19;95676.75;;;11.63;100.00
20003;BME280;10162;41.600;23.806;2023-05-03T05:16:45;95667.09;;;11.63;100.00
20003;BME280;10162;41.600;23.806;2023-05-03T05:19:12;95675.78;;;11.85;100.00
20003;BME280;10162;41.600;23.806;2023-05-03T05:24:50;95657.41;;;12.06;100.00
20003;BME280;10162;41.600;23.806;2023-05-03T05:27:18;95669.53;;;12.07;100.00
20003;BME280;10162;41.600;23.806;2023-05-03T05:29:44;95671.66;;;11.97;100.00
20003;BME280;10162;41.600;23.806;2023-05-03T05:35:21;95689.56;;;12.49;100.00
20003;BME280;10162;41.600;23.806;2023-05-03T05:37:47;95682.53;;;12.56;100.00
20003;BME280;10162;41.600;23.806;2023-05-03T05:40:13;95681.06;;;11.91;100.00
20003;BME280;10162;41.600;23.806;2023-05-03T05:43:16;95682.16;;;12.59;100.00
20003;BME280;10162;41.600;23.806;2023-05-03T05:45:45;95662.69;;;12.75;100.00
20003;BME280;10162;41.600;23.806;2023-05-03T05:48:11;95665.72;;;13.26;100.00
20003;BME280;10162;41.600;23.806;2023-05-03T05:50:48;95661.91;;;12.81;100.00
20003;BME280;10162;41.600;23.806;2023-05-03T05:53:15;95662.00;;;12.66;100.00
20003;BME280;10162;41.600;23.806;2023-05-03T05:55:49;95662.59;;;12.27;100.00
20003;BME280;10162;41.600;23.806;2023-05-03T05:58:15;95662.06;;;12.38;100.00
20003;BME280;10162;41.600;23.806;2023-05-03T06:01:03;95663.41;;;12.62;100.00
20003;BME280;10162;41.600;23.806;2023-05-03T06:03:33;95655.56;;;13.10;100.00
20003;BME280;10162;41.600;23.806;2023-05-03T06:06:02;95642.91;;;13.33;100.00
20003;BME280;10162;41.600;23.806;2023-05-03T06:08:29;95645.69;;;12.02;100.00
20003;BME280;10162;41.600;23.806;2023-05-03T06:14:28;95650.47;;;13.02;100.00
20003;BME280;10162;41.600;23.806;2023-05-03T06:16:55;95634.41;;;12.36;100.00
20003;BME280;10162;41.600;23.806;2023-05-03T06:19:20;95642.66;;;13.15;100.00
20003;BME280;10162;41.600;23.806;2023-05-03T06:24:41;95647.19;;;13.47;100.00
20003;BME280;10162;41.600;23.806;2023-05-03T06:27:07;95639.31;;;13.67;100.00
20003;BME280;10162;41.600;23.806;2023-05-03T06:29:33;95635.50;;;13.83;100.00
20003;BME280;10162;41.600;23.806;2023-05-03T06:32:32;95649.84;;;13.80;100.00
20003;BME280;10162;41.600;23.806;2023-05-03T06:34:57;95637.91;;;13.97;100.00
20003;BME280;10162;41.600;23.806;2023-05-03T06:37:27;95629.63;;;14.00;100.00
20003;BME280;10162;41.600;23.806;2023-05-03T06:39:52;95640.97;;;14.01;100.00
20003;BME280;10162;41.600;23.806;2023-05-03T06:45:35;95628.16;;;14.24;100.00
20003;BME280;10162;41.600;23.806;2023-05-03T06:48:01;95631.44;;;14.00;100.00
20003;BME280;10162;41.600;23.806;2023-05-03T06:50:27;95632.00;;;14.48;99.76
20003;BME280;10162;41.600;23.806;2023-05-03T06:55:45;95646.25;;;14.92;100.00
20003;BME280;10162;41.600;23.806;2023-05-03T06:58:10;95654.88;;;14.15;98.97
20003;BME280;10162;41.600;23.806;2023-05-03T07:04:08;95666.22;;;13.76;97.90
20003;BME280;10162;41.600;23.806;2023-05-03T07:06:34;95663.13;;;13.39;97.69
20003;BME280;10162;41.600;23.806;2023-05-03T07:08:59;95653.06;;;13.76;93.38
20003;BME280;10162;41.600;23.806;2023-05-03T07:11:40;95659.16;;;13.83;91.20
20003;BME280;10162;41.600;23.806;2023-05-03T07:14:14;95651.06;;;13.71;94.04
20003;BME280;10162;41.600;23.806;2023-05-03T07:16:40;95644.41;;;13.01;95.79
20003;BME280;10162;41.600;23.806;2023-05-03T07:19:07;95644.00;;;12.98;100.00
20003;BME280;10162;41.600;23.806;2023-05-03T07:21:45;95642.97;;;12.99;95.22
20003;BME280;10162;41.600;23.806;2023-05-03T07:24:11;95636.06;;;13.52;92.18
20003;BME280;10162;41.600;23.806;2023-05-03T07:26:37;95643.34;;;13.56;90.16
20003;BME280;10162;41.600;23.806;2023-05-03T07:29:06;95651.28;;;13.89;91.25
20003;BME280;10162;41.600;23.806;2023-05-03T07:34:40;95622.34;;;14.86;87.08
20003;BME280;10162;41.600;23.806;2023-05-03T07:37:06;95617.66;;;15.02;86.63
20003;BME280;10162;41.600;23.806;2023-05-03T07:39:31;95622.66;;;15.10;86.34
20003;BME280;10162;41.600;23.806;2023-05-03T07:41:57;95617.84;;;16.19;77.54
20003;BME280;10162;41.600;23.806;2023-05-03T07:44:23;95631.56;;;17.07;72.40
20003;BME280;10162;41.600;23.806;2023-05-03T07:46:49;95612.53;;;16.69;70.09
20003;BME280;10162;41.600;23.806;2023-05-03T07:49:15;95640.91;;;16.91;71.93
20003;BME280;10162;41.600;23.806;2023-05-03T07:54:58;95602.34;;;17.02;70.71
20003;BME280;10162;41.600;23.806;2023-05-03T07:57:24;95611.53;;;16.45;68.60
20003;BME280;10162;41.600;23.806;2023-05-03T07:59:50;95639.16;;;17.45;67.30
20003;BME280;10162;41.600;23.806;2023-05-03T08:06:09;95610.66;;;16.69;65.87
20003;BME280;10162;41.600;23.806;2023-05-03T08:08:37;95616.38;;;17.03;65.40
20003;BME280;10162;41.600;23.806;2023-05-03T08:14:37;95621.75;;;16.78;67.79
20003;BME280;10162;41.600;23.806;2023-05-03T08:17:05;95637.78;;;16.94;65.52
20003;BME280;10162;41.600;23.806;2023-05-03T08:19:30;95637.44;;;16.73;66.95
20003;BME280;10162;41.600;23.806;2023-05-03T08:24:51;95614.72;;;16.47;68.62
20003;BME280;10162;41.600;23.806;2023-05-03T08:27:18;95638.75;;;17.00;68.16
20003;BME280;10162;41.600;23.806;2023-05-03T08:29:43;95636.19;;;16.93;64.91
20003;BME280;10162;41.600;23.806;2023-05-03T08:32:10;95629.81;;;16.65;67.52
20003;BME280;10162;41.600;23.806;2023-05-03T08:34:36;95648.22;;;16.46;67.15
20003;BME280;10162;41.600;23.806;2023-05-03T08:37:01;95651.38;;;16.62;67.53
20003;BME280;10162;41.600;23.806;2023-05-03T08:39:29;95662.28;;;15.97;69.13
20003;BME280;10162;41.600;23.806;2023-05-03T08:41:58;95643.50;;;15.87;71.61
20003;BME280;10162;41.600;23.806;2023-05-03T08:44:28;95664.63;;;16.30;72.40
20003;BME280;10162;41.600;23.806;2023-05-03T08:46:53;95645.53;;;16.10;72.97
20003;BME280;10162;41.600;23.806;2023-05-03T08:49:19;95632.34;;;15.60;72.82
20003;BME280;10162;41.600;23.806;2023-05-03T08:51:46;95638.88;;;15.45;74.34
20003;BME280;10162;41.600;23.806;2023-05-03T08:54:16;95668.66;;;15.52;73.87
20003;BME280;10162;41.600;23.806;2023-05-03T08:56:45;95648.28;;;14.89;78.77
20003;BME280;10162;41.600;23.806;2023-05-03T08:59:12;95644.28;;;14.74;80.90
20003;BME280;10162;41.600;23.806;2023-05-03T09:01:40;95665.78;;;14.58;83.56
20003;BME280;10162;41.600;23.806;2023-05-03T09:04:06;95662.94;;;14.66;81.24
20003;BME280;10162;41.600;23.806;2023-05-03T09:06:33;95636.06;;;14.37;83.15
20003;BME280;10162;41.600;23.806;2023-05-03T09:09:01;95650.94;;;14.76;85.59
20003;BME280;10162;41.600;23.806;2023-05-03T09:11:37;95650.81;;;15.09;88.59
20003;BME280;10162;41.600;23.806;2023-05-03T09:14:12;95645.28;;;14.79;90.51
20003;BME280;10162;41.600;23.806;2023-05-03T09:16:41;95639.88;;;14.61;91.24
20003;BME280;10162;41.600;23.806;2023-05-03T09:19:09;95620.38;;;14.75;88.76
20003;BME280;10162;41.600;23.806;2023-05-03T09:21:39;95619.78;;;14.80;83.90
20003;BME280;10162;41.600;23.806;2023-05-03T09:24:31;95642.06;;;14.71;84.17
20003;BME280;10162;41.600;23.806;2023-05-03T09:26:57;95621.06;;;14.58;86.46
20003;BME280;10162;41.600;23.806;2023-05-03T09:32:03;95633.75;;;15.18;78.67
20003;BME280;10162;41.600;23.806;2023-05-03T09:34:33;95632.53;;;15.21;79.17
20003;BME280;10162;41.600;23.806;2023-05-03T09:37:00;95628.47;;;15.63;81.71
20003;BME280;10162;41.600;23.806;2023-05-03T09:39:26;95625.06;;;15.56;81.19
20003;BME280;10162;41.600;23.806;2023-05-03T09:41:55;95626.50;;;15.83;79.55
20003;BME280;10162;41.600;23.806;2023-05-03T09:44:41;95641.66;;;16.12;80.83
20003;BME280;10162;41.600;23.806;2023-05-03T09:47:07;95621.22;;;15.83;81.68
20003;BME280;10162;41.600;23.806;2023-05-03T09:49:33;95615.47;;;15.30;79.03
20003;BME280;10162;41.600;23.806;2023-05-03T09:52:06;95612.94;;;15.48;82.64
20003;BME280;10162;41.600;23.806;2023-05-03T09:54:33;95614.66;;;15.61;82.05
20003;BME280;10162;41.600;23.806;2023-05-03T09:57:03;95621.66;;;15.49;80.80
20003;BME280;10162;41.600;23.806;2023-05-03T09:59:32;95602.16;;;15.50;83.75
20003;BME280;10162;41.600;23.806;2023-05-03T10:02:01;95615.44;;;15.68;83.05
20003;BME280;10162;41.600;23.806;2023-05-03T10:04:29;95603.72;;;15.64;81.64
20003;BME280;10162;41.600;23.806;2023-05-03T10:07:02;95599.69;;;15.23;80.22
20003;BME280;10162;41.600;23.806;2023-05-03T10:09:38;95619.56;;;15.26;80.47
20003;BME280;10162;41.600;23.806;2023-05-03T10:12:07;95620.25;;;15.08;83.86
20003;BME280;10162;41.600;23.806;2023-05-03T10:14:33;95588.94;;;14.87;83.44
20003;BME280;10162;41.600;23.806;2023-05-03T10:17:07;95608.06;;;14.69;83.32
20003;BME280;10162;41.600;23.806;2023-05-03T10:19:51;95604.00;;;15.11;82.26
20003;BME280;10162;41.600;23.806;2023-05-03T10:22:18;95603.56;;;15.21;81.21
20003;BME280;10162;41.600;23.806;2023-05-03T10:27:21;95595.78;;;15.01;83.45
20003;BME280;10162;41.600;23.806;2023-05-03T10:29:50;95557.66;;;15.04;83.13
20003;BME280;10162;41.600;23.806;2023-05-03T10:32:46;95580.91;;;15.13;82.43
20003;BME280;10162;41.600;23.806;2023-05-03T10:35:14;95581.28;;;15.17;83.38
20003;BME280;10162;41.600;23.806;2023-05-03T10:37:41;95562.44;;;14.82;82.45
20003;BME280;10162;41.600;23.806;2023-05-03T10:40:13;95566.97;;;15.06;82.14
20003;BME280;10162;41.600;23.806;2023-05-03T10:42:53;95580.03;;;14.37;83.08
20003;BME280;10162;41.600;23.806;2023-05-03T10:45:27;95581.78;;;14.63;85.64
20003;BME280;10162;41.600;23.806;2023-05-03T10:48:14;95572.44;;;14.67;85.29
20003;BME280;10162;41.600;23.806;2023-05-03T10:50:51;95567.00;;;14.62;82.59
20003;BME280;10162;41.600;23.806;2023-05-03T10:53:46;95576.09;;;14.59;83.74
20003;BME280;10162;41.600;23.806;2023-05-03T10:56:13;95552.22;;;14.61;86.46
20003;BME280;10162;41.600;23.806;2023-05-03T10:58:47;95557.09;;;14.57;85.28
20003;BME280;10162;41.600;23.806;2023-05-03T11:01:28;95556.28;;;14.57;84.66
20003;BME280;10162;41.600;23.806;2023-05-03T11:04:03;95568.06;;;14.34;88.04
20003;BME280;10162;41.600;23.806;2023-05-03T11:06:39;95565.22;;;14.36;88.83
20003;BME280;10162;41.600;23.806;2023-05-03T11:09:13;95565.94;;;13.92;92.21
20003;BME280;10162;41.600;23.806;2023-05-03T11:11:40;95563.13;;;13.80;95.15
20003;BME280;10162;41.600;23.806;2023-05-03T11:14:07;95539.69;;;13.72;94.46
20003;BME280;10162;41.600;23.806;2023-05-03T11:16:34;95533.81;;;13.83;96.94
20003;BME280;10162;41.600;23.806;2023-05-03T11:19:01;95541.66;;;14.03;96.76
20003;BME280;10162;41.600;23.806;2023-05-03T11:21:28;95518.44;;;13.67;98.77
20003;BME280;10162;41.600;23.806;2023-05-03T11:23:57;95523.84;;;14.05;98.10
20003;BME280;10162;41.600;23.806;2023-05-03T11:26:23;95530.91;;;14.11;97.26
20003;BME280;10162;41.600;23.806;2023-05-03T11:28:50;95538.81;;;14.04;100.00
20003;BME280;10162;41.600;23.806;2023-05-03T11:31:17;95527.47;;;14.17;98.91
20003;BME280;10162;41.600;23.806;2023-05-03T11:33:45;95530.31;;;14.09;100.00
20003;BME280;10162;41.600;23.806;2023-05-03T11:36:10;95524.13;;;13.64;100.00
20003;BME280;10162;41.600;23.806;2023-05-03T11:38:38;95547.91;;;14.08;100.00
20003;BME280;10162;41.600;23.806;2023-05-03T11:41:16;95540.84;;;14.02;100.00
20003;BME280;10162;41.600;23.806;2023-05-03T11:43:47;95526.94;;;13.76;100.00
20003;BME280;10162;41.600;23.806;2023-05-03T11:46:20;95552.34;;;14.01;100.00
20003;BME280;10162;41.600;23.806;2023-05-03T11:48:47;95546.94;;;13.83;100.00
20003;BME280;10162;41.600;23.806;2023-05-03T11:51:21;95544.94;;;13.65;100.00
20003;BME280;10162;41.600;23.806;2023-05-03T11:53:49;95521.91;;;13.28;100.00
20003;BME280;10162;41.600;23.806;2023-05-03T11:56:16;95554.03;;;13.76;100.00
20003;BME280;10162;41.600;23.806;2023-05-03T11:58:54;95535.84;;;13.68;100.00
20003;BME280;10162;41.600;23.806;2023-05-03T12:01:31;95532.56;;;13.07;100.00
20003;BME280;10162;41.600;23.806;2023-05-03T12:03:59;95545.88;;;13.05;100.00
20003;BME280;10162;41.600;23.806;2023-05-03T12:06:27;95531.97;;;13.11;100.00
20003;BME280;10162;41.600;23.806;2023-05-03T12:08:55;95521.25;;;13.06;100.00
20003;BME280;10162;41.600;23.806;2023-05-03T12:14:58;95508.41;;;12.51;100.00
20003;BME280;10162;41.600;23.806;2023-05-03T12:17:38;95510.50;;;12.88;100.00
20003;BME280;10162;41.600;23.806;2023-05-03T12:20:16;95529.53;;;12.97;100.00
20003;BME280;10162;41.600;23.806;2023-05-03T12:23:20;95521.09;;;13.14;100.00
20003;BME280;10162;41.600;23.806;2023-05-03T12:25:47;95512.81;;;13.37;100.00
20003;BME280;10162;41.600;23.806;2023-05-03T12:28:15;95492.63;;;13.24;100.00
20003;BME280;10162;41.600;23.806;2023-05-03T12:31:01;95512.75;;;13.04;100.00
20003;BME280;10162;41.600;23.806;2023-05-03T12:33:27;95521.22;;;13.00;100.00
20003;BME280;10162;41.600;23.806;2023-05-03T12:35:53;95505.03;;;12.76;100.00
20003;BME280;10162;41.600;23.806;2023-05-03T12:38:18;95486.69;;;12.76;100.00
20003;BME280;10162;41.600;23.806;2023-05-03T12:40:57;95444.50;;;12.71;100.00
20003;BME280;10162;41.600;23.806;2023-05-03T12:43:24;95477.03;;;12.90;100.00
20003;BME280;10162;41.600;23.806;2023-05-03T12:45:50;95453.41;;;12.83;100.00
20003;BME280;10162;41.600;23.806;2023-05-03T12:48:16;95460.66;;;12.81;100.00
20003;BME280;10162;41.600;23.806;2023-05-03T12:54:36;95473.88;;;12.34;100.00
20003;BME280;10162;41.600;23.806;2023-05-03T12:57:05;95447.91;;;12.52;100.00
20003;BME280;10162;41.600;23.806;2023-05-03T12:59:31;95450.63;;;13.24;100.00
20003;BME280;10162;41.600;23.806;2023-05-03T13:02:03;95439.28;;;13.44;100.00
20003;BME280;10162;41.600;23.806;2023-05-03T13:04:31;95432.00;;;13.00;100.00
20003;BME280;10162;41.600;23.806;2023-05-03T13:06:58;95411.63;;;12.95;100.00
20003;BME280;10162;41.600;23.806;2023-05-03T13:09:24;95417.44;;;13.56;100.00
20003;BME280;10162;41.600;23.806;2023-05-03T13:14:46;95437.47;;;14.15;100.00
20003;BME280;10162;41.600;23.806;2023-05-03T13:17:12;95425.41;;;14.01;100.00
20003;BME280;10162;41.600;23.806;2023-05-03T13:19:40;95435.00;;;14.20;100.00
20003;BME280;10162;41.600;23.806;2023-05-03T13:26:00;95394.91;;;14.31;100.00
20003;BME280;10162;41.600;23.806;2023-05-03T13:28:26;95411.47;;;14.32;100.00
20003;BME280;10162;41.600;23.806;2023-05-03T13:34:46;95396.72;;;14.31;100.00
20003;BME280;10162;41.600;23.806;2023-05-03T13:37:14;95405.81;;;14.35;100.00
20003;BME280;10162;41.600;23.806;2023-05-03T13:39:43;95415.56;;;14.28;100.00
20003;BME280;10162;41.600;23.806;2023-05-03T13:42:22;95389.56;;;14.51;100.00
20003;BME280;10162;41.600;23.806;2023-05-03T13:44:49;95389.63;;;14.38;100.00
20003;BME280;10162;41.600;23.806;2023-05-03T13:47:15;95385.25;;;14.19;100.00
20003;BME280;10162;41.600;23.806;2023-05-03T13:49:41;95392.25;;;14.31;100.00
20003;BME280;10162;41.600;23.806;2023-05-03T13:56:01;95381.53;;;14.39;100.00
20003;BME280;10162;41.600;23.806;2023-05-03T13:58:27;95391.63;;;14.42;100.00
20003;BME280;10162;41.600;23.806;2023-05-03T14:01:28;95391.75;;;14.54;100.00
20003;BME280;10162;41.600;23.806;2023-05-03T14:03:54;95392.63;;;14.41;100.00
20003;BME280;10162;41.600;23.806;2023-05-03T14:06:20;95405.84;;;14.28;100.00
20003;BME280;10162;41.600;23.806;2023-05-03T14:08:47;95385.09;;;14.07;100.00
20003;BME280;10162;41.600;23.806;2023-05-03T14:11:17;95356.69;;;13.84;100.00
20003;BME280;10162;41.600;23.806;2023-05-03T14:13:43;95376.19;;;14.15;100.00
20003;BME280;10162;41.600;23.806;2023-05-03T14:16:17;95372.72;;;14.14;100.00
20003;BME280;10162;41.600;23.806;2023-05-03T14:18:43;95379.84;;;14.07;100.00
20003;BME280;10162;41.600;23.806;2023-05-03T14:21:13;95384.03;;;13.77;100.00
20003;BME280;10162;41.600;23.806;2023-05-03T14:23:40;95373.22;;;13.40;100.00
20003;BME280;10162;41.600;23.806;2023-05-03T14:26:06;95367.59;;;13.17;100.00
20003;BME280;10162;41.600;23.806;2023-05-03T14:28:32;95365.78;;;13.17;100.00
20003;BME280;10162;41.600;23.806;2023-05-03T14:31:12;95357.09;;;13.37;100.00
20003;BME280;10162;41.600;23.806;2023-05-03T14:33:41;95355.81;;;13.59;100.00
20003;BME280;10162;41.600;23.806;2023-05-03T14:36:07;95353.91;;;13.73;100.00
20003;BME280;10162;41.600;23.806;2023-05-03T14:38:34;95373.41;;;14.03;100.00
20003;BME280;10162;41.600;23.806;2023-05-03T14:44:54;95344.16;;;14.24;100.00
20003;BME280;10162;41.600;23.806;2023-05-03T14:47:21;95342.19;;;13.75;100.00
20003;BME280;10162;41.600;23.806;2023-05-03T14:49:47;95346.22;;;14.22;100.00